createdAt,value
2022-08-20T00:00:16.586Z,100313.50
2022-08-20T00:02:48.611Z,100311.03
2022-08-20T00:05:22.664Z,100312.09
2022-08-20T00:07:51.616Z,100312.72
2022-08-20T00:10:22.949Z,100310.16
2022-08-20T00:12:52.862Z,100310.03
2022-08-20T00:15:28.581Z,100314.00
2022-08-20T00:17:59.142Z,100310.69
2022-08-20T00:20:32.393Z,100209.22
2022-08-20T00:23:01.885Z,100321.31
2022-08-20T00:25:32.272Z,100320.16
2022-08-20T00:28:03.724Z,100176.06
2022-08-20T00:30:33.093Z,100322.84
2022-08-20T00:33:06.332Z,100313.91
2022-08-20T00:35:38.512Z,100313.91
2022-08-20T00:38:07.480Z,100310.69
2022-08-20T00:40:42.486Z,100288.34
2022-08-20T00:43:33.485Z,100302.50
2022-08-20T00:46:09.880Z,100306.56
2022-08-20T00:48:44.554Z,100290.84
2022-08-20T00:51:19.569Z,100294.19
2022-08-20T00:53:48.343Z,100281.91
2022-08-20T00:56:19.564Z,100283.56
2022-08-20T00:58:51.063Z,100253.47
2022-08-20T01:01:22.988Z,100281.06
2022-08-20T01:03:56.652Z,100115.50
2022-08-20T01:06:26.362Z,100288.19
2022-08-20T01:08:55.333Z,100286.50
2022-08-20T01:11:37.129Z,100277.56
2022-08-20T01:14:31.723Z,100293.56
2022-08-20T01:17:07.175Z,100271.25
2022-08-20T01:19:43.182Z,100254.84
2022-08-20T01:22:33.989Z,100284.00
2022-08-20T01:25:14.052Z,100294.25
2022-08-20T01:27:46.719Z,100291.66
2022-08-20T01:30:22.220Z,100298.41
2022-08-20T01:32:51.158Z,100312.16
2022-08-20T01:35:23.677Z,100290.53
2022-08-20T01:37:52.735Z,100310.41
2022-08-20T01:40:44.540Z,100313.84
2022-08-20T01:43:24.237Z,100308.88
2022-08-20T01:45:54.219Z,100315.41
2022-08-20T01:48:25.112Z,100116.56
2022-08-20T01:51:15.754Z,100091.69
2022-08-20T01:53:48.509Z,100325.00
2022-08-20T01:56:25.373Z,100154.47
2022-08-20T01:59:06.742Z,100330.28
2022-08-20T02:01:45.958Z,100329.50
2022-08-20T02:04:19.995Z,100331.25
2022-08-20T02:07:01.496Z,100084.59
2022-08-20T02:09:33.932Z,100317.63
2022-08-20T02:12:10.292Z,100319.53
2022-08-20T02:15:08.860Z,100318.56
2022-08-20T02:17:57.208Z,100318.66
2022-08-20T02:20:37.577Z,100319.63
2022-08-20T02:23:07.430Z,100316.84
2022-08-20T02:25:42.228Z,100309.34
2022-08-20T02:28:24.994Z,100052.53
2022-08-20T02:30:56.577Z,100323.75
2022-08-20T02:33:33.674Z,100318.56
2022-08-20T02:36:12.610Z,100323.28
2022-08-20T02:39:00.985Z,100312.34
2022-08-20T02:41:51.817Z,100317.91
2022-08-20T02:44:21.534Z,100310.69
2022-08-20T02:47:01.609Z,100308.88
2022-08-20T02:49:37.686Z,100299.66
2022-08-20T02:52:56.541Z,100304.38
2022-08-20T02:56:08.943Z,100302.81
2022-08-20T03:00:11.975Z,100300.00
2022-08-20T03:02:25.510Z,100295.91
2022-08-20T03:09:56.040Z,100295.50
2022-08-20T03:32:31.953Z,100269.44
2022-08-20T03:38:32.228Z,100287.16
2022-08-20T03:41:03.334Z,100278.84
2022-08-20T03:43:35.678Z,100272.69
2022-08-20T03:46:05.166Z,100270.31
2022-08-20T03:48:56.700Z,100282.03
2022-08-20T03:51:30.067Z,100284.03
2022-08-20T03:54:09.127Z,100285.56
2022-08-20T03:56:38.724Z,100282.03
2022-08-20T03:59:08.330Z,100283.25
2022-08-20T04:01:46.756Z,100286.63
2022-08-20T04:04:25.187Z,100291.81
2022-08-20T04:07:00.383Z,100300.25
2022-08-20T04:09:30.167Z,100296.03
2022-08-20T04:12:01.291Z,100300.56
2022-08-20T04:14:30.405Z,100300.56
2022-08-20T04:17:06.904Z,100282.34
2022-08-20T04:19:45.526Z,100286.75
2022-08-20T04:25:50.325Z,100292.78
2022-08-20T04:28:25.649Z,100201.06
2022-08-20T04:30:54.789Z,100301.31
2022-08-20T04:33:33.701Z,100298.31
2022-08-20T04:36:07.012Z,100156.91
2022-08-20T04:38:48.170Z,100304.47
2022-08-20T04:41:23.208Z,100305.88
2022-08-20T04:43:54.622Z,100313.44
2022-08-20T04:46:28.928Z,100260.25
2022-08-20T04:48:58.642Z,100311.28
2022-08-20T04:51:28.775Z,100307.81
2022-08-20T04:54:01.109Z,100305.59
2022-08-20T04:56:39.007Z,100287.03
2022-08-20T04:59:08.627Z,100305.25
2022-08-20T05:01:37.574Z,100311.56
2022-08-20T05:04:06.603Z,100311.69
2022-08-20T05:06:36.661Z,100279.31
2022-08-20T05:09:05.847Z,100320.13
2022-08-20T05:11:36.891Z,100316.69
2022-08-20T05:14:08.925Z,100300.00
2022-08-20T05:16:39.098Z,100320.34
2022-08-20T05:19:10.193Z,100219.81
2022-08-20T05:21:40.882Z,100307.00
2022-08-20T05:24:11.514Z,100325.13
2022-08-20T05:26:40.935Z,100325.88
2022-08-20T05:29:09.579Z,100284.56
2022-08-20T05:31:39.437Z,100334.72
2022-08-20T05:34:12.841Z,100335.28
2022-08-20T05:36:48.283Z,100317.66
2022-08-20T05:39:20.404Z,100330.09
2022-08-20T05:41:51.425Z,100339.19
2022-08-20T05:44:20.889Z,100318.22
2022-08-20T05:46:50.712Z,100337.97
2022-08-20T05:49:23.133Z,100341.22
2022-08-20T05:51:53.379Z,100342.25
2022-08-20T05:54:21.994Z,100344.84
2022-08-20T05:56:50.553Z,100341.91
2022-08-20T05:59:23.916Z,100332.78
2022-08-20T06:01:53.552Z,100322.63
2022-08-20T06:04:28.232Z,100354.47
2022-08-20T06:07:06.778Z,100364.66
2022-08-20T06:09:36.437Z,100352.25
2022-08-20T06:12:09.102Z,100354.75
2022-08-20T06:14:40.473Z,100356.47
2022-08-20T06:17:15.299Z,100358.59
2022-08-20T06:19:47.051Z,100327.16
2022-08-20T06:22:22.988Z,100365.25
2022-08-20T06:24:56.339Z,100366.50
2022-08-20T06:27:26.261Z,100364.59
2022-08-20T06:29:57.154Z,100372.19
2022-08-20T06:32:32.383Z,100373.44
2022-08-20T06:35:03.632Z,100371.91
2022-08-20T06:37:37.133Z,100372.78
2022-08-20T06:40:12.849Z,100384.56
2022-08-20T06:42:48.067Z,100375.25
2022-08-20T06:45:20.935Z,100373.38
2022-08-20T06:47:52.761Z,100385.94
2022-08-20T06:50:26.079Z,100380.31
2022-08-20T06:52:56.672Z,100377.19
2022-08-20T06:55:25.994Z,100394.25
2022-08-20T06:57:59.806Z,100392.94
2022-08-20T07:00:39.204Z,100398.75
2022-08-20T07:03:09.552Z,100398.59
2022-08-20T07:05:46.910Z,100398.41
2022-08-20T07:08:22.297Z,100396.84
2022-08-20T07:10:53.738Z,100396.25
2022-08-20T07:13:22.826Z,100392.94
2022-08-20T07:15:56.639Z,100383.88
2022-08-20T07:18:32.018Z,100384.72
2022-08-20T07:21:20.039Z,100396.13
2022-08-20T07:23:50.885Z,100402.03
2022-08-20T07:26:27.593Z,100397.72
2022-08-20T07:28:59.393Z,100408.88
2022-08-20T07:31:45.989Z,100401.88
2022-08-20T07:34:17.514Z,100411.66
2022-08-20T07:36:54.979Z,100413.31
2022-08-20T07:39:27.109Z,100426.09
2022-08-20T07:42:04.041Z,100425.16
2022-08-20T07:44:39.057Z,100435.13
2022-08-20T07:47:08.354Z,100435.38
2022-08-20T07:49:40.211Z,100431.03
2022-08-20T07:52:09.731Z,100432.44
2022-08-20T07:54:45.568Z,100426.44
2022-08-20T07:57:20.611Z,100438.06
2022-08-20T08:00:00.328Z,100438.66
2022-08-20T08:02:31.314Z,100435.13
2022-08-20T08:05:04.998Z,100426.88
2022-08-20T08:07:35.157Z,100433.38
2022-08-20T08:10:11.385Z,100443.00
2022-08-20T08:12:48.972Z,100444.53
2022-08-20T08:15:25.612Z,100439.28
2022-08-20T08:17:59.011Z,100444.94
2022-08-20T08:20:33.713Z,100449.00
2022-08-20T08:23:02.677Z,100452.44
2022-08-20T08:25:33.759Z,100450.16
2022-08-20T08:28:05.492Z,100446.91
2022-08-20T08:30:34.632Z,100445.94
2022-08-20T08:33:20.707Z,100452.78
2022-08-20T08:35:50.941Z,100451.16
2022-08-20T08:38:23.069Z,100436.16
2022-08-20T08:40:59.108Z,100463.63
2022-08-20T08:43:31.761Z,100456.13
2022-08-20T08:46:03.648Z,100461.03
2022-08-20T08:48:37.649Z,100473.66
2022-08-20T08:51:12.456Z,100470.63
2022-08-20T08:53:47.310Z,100329.78
2022-08-20T08:56:18.328Z,100475.88
2022-08-20T08:58:47.282Z,100486.63
2022-08-20T09:01:53.808Z,100482.03
2022-08-20T09:04:11.206Z,100482.69
2022-08-20T09:06:40.751Z,100449.94
2022-08-20T09:09:18.997Z,100484.41
2022-08-20T09:11:53.290Z,100491.59
2022-08-20T09:14:25.010Z,100491.44
2022-08-20T09:16:54.445Z,100495.63
2022-08-20T09:19:23.317Z,100485.88
2022-08-20T09:21:52.611Z,100496.63
2022-08-20T09:24:21.528Z,100490.00
2022-08-20T09:26:51.984Z,100490.97
2022-08-20T09:29:20.912Z,100493.25
2022-08-20T09:31:49.948Z,100490.56
2022-08-20T09:34:18.877Z,100493.88
2022-08-20T09:36:47.790Z,100487.63
2022-08-20T09:39:16.638Z,100491.09
2022-08-20T09:41:45.530Z,100488.50
2022-08-20T09:44:15.851Z,100472.47
2022-08-20T09:46:44.807Z,100474.59
2022-08-20T09:49:13.750Z,100480.44
2022-08-20T09:51:42.712Z,100472.00
2022-08-20T09:54:11.636Z,100467.19
2022-08-20T09:56:40.656Z,100462.22
2022-08-20T09:59:09.552Z,100463.09
2022-08-20T10:01:39.915Z,100464.69
2022-08-20T10:04:08.859Z,100467.47
2022-08-20T10:06:42.084Z,100463.69
2022-08-20T10:09:11.108Z,100471.03
2022-08-20T10:11:43.509Z,100469.75
2022-08-20T10:14:12.542Z,100469.88
2022-08-20T10:16:42.856Z,100469.16
2022-08-20T10:19:11.778Z,100468.19
2022-08-20T10:21:41.028Z,100466.75
2022-08-20T10:24:10.012Z,100465.78
2022-08-20T10:26:43.126Z,100470.56
2022-08-20T10:29:12.116Z,100470.75
2022-08-20T10:31:42.644Z,100471.75
2022-08-20T10:34:11.544Z,100468.19
2022-08-20T10:36:42.709Z,100472.22
2022-08-20T10:39:11.826Z,100467.00
2022-08-20T10:41:40.707Z,100471.50
2022-08-20T10:44:09.867Z,100468.78
2022-08-20T10:46:55.320Z,100467.66
2022-08-20T10:49:28.091Z,100393.81
2022-08-20T10:51:57.061Z,100473.34
2022-08-20T10:54:26.762Z,100474.16
2022-08-20T10:56:55.847Z,100476.25
2022-08-20T10:59:30.398Z,100482.19
2022-08-20T11:02:00.840Z,100480.28
2022-08-20T11:04:31.372Z,100488.66
2022-08-20T11:07:22.463Z,100380.41
2022-08-20T11:10:14.541Z,100491.78
2022-08-20T11:12:46.399Z,100485.91
2022-08-20T11:15:18.449Z,100490.78
2022-08-20T11:17:47.675Z,100487.53
2022-08-20T11:20:21.714Z,100502.97
2022-08-20T11:22:50.996Z,100501.44
2022-08-20T11:25:23.042Z,100502.78
2022-08-20T11:27:57.570Z,100501.06
2022-08-20T11:30:32.746Z,100505.75
2022-08-20T11:33:02.771Z,100505.56
2022-08-20T11:35:43.293Z,100357.53
2022-08-20T11:38:22.408Z,100516.78
2022-08-20T11:40:51.547Z,100514.44
2022-08-20T11:43:23.015Z,100519.41
2022-08-20T11:45:56.668Z,100532.44
2022-08-20T11:48:25.799Z,100527.25
2022-08-20T11:50:59.574Z,100524.16
2022-08-20T11:53:30.906Z,100535.34
2022-08-20T11:56:04.179Z,100534.81
2022-08-20T11:58:33.909Z,100537.78
2022-08-20T12:01:04.156Z,100543.66
2022-08-20T12:03:33.213Z,100540.09
2022-08-20T12:06:03.930Z,100539.41
2022-08-20T12:08:33.368Z,100540.97
2022-08-20T12:11:04.883Z,100537.00
2022-08-20T12:13:48.773Z,100536.91
2022-08-20T12:16:22.766Z,100539.91
2022-08-20T12:18:52.557Z,100543.66
2022-08-20T12:21:23.292Z,100537.94
2022-08-20T12:23:52.689Z,100540.25
2022-08-20T12:26:24.659Z,100537.34
2022-08-20T12:28:55.342Z,100537.13
2022-08-20T12:31:24.295Z,100533.28
2022-08-20T12:33:53.332Z,100538.13
2022-08-20T12:36:25.795Z,100543.56
2022-08-20T12:38:59.552Z,100535.06
2022-08-20T12:41:28.685Z,100534.53
2022-08-20T12:44:07.240Z,100525.03
2022-08-20T12:46:44.520Z,100535.66
2022-08-20T12:49:13.566Z,100530.69
2022-08-20T12:51:43.880Z,100536.50
2022-08-20T12:54:14.797Z,100539.00
2022-08-20T12:56:44.310Z,100539.94
2022-08-20T12:59:15.382Z,100545.50
2022-08-20T13:01:44.851Z,100543.94
2022-08-20T13:04:13.721Z,100543.00
2022-08-20T13:06:44.165Z,100546.25
2022-08-20T13:09:13.772Z,100542.38
2022-08-20T13:11:42.796Z,100539.00
2022-08-20T13:14:11.899Z,100540.03
2022-08-20T13:16:40.783Z,100543.78
2022-08-20T13:19:09.868Z,100541.19
2022-08-20T13:21:41.545Z,100512.66
2022-08-20T13:24:11.878Z,100543.88
2022-08-20T13:26:40.893Z,100543.78
2022-08-20T13:29:09.511Z,100548.66
2022-08-20T13:31:38.545Z,100557.53
2022-08-20T13:34:07.498Z,100551.22
2022-08-20T13:36:36.850Z,100554.28
2022-08-20T13:39:07.635Z,100557.34
2022-08-20T13:41:37.913Z,100549.03
2022-08-20T13:44:06.942Z,100563.59
2022-08-20T13:46:35.863Z,100562.81
2022-08-20T13:49:04.901Z,100565.56
2022-08-20T13:51:33.843Z,100562.97
2022-08-20T13:54:02.443Z,100521.41
2022-08-20T13:56:31.588Z,100556.03
2022-08-20T13:59:01.920Z,100561.16
2022-08-20T14:01:31.191Z,100556.22
2022-08-20T14:04:00.288Z,100561.22
2022-08-20T14:06:31.640Z,100536.91
2022-08-20T14:09:00.610Z,100564.88
2022-08-20T14:11:31.057Z,100391.06
2022-08-20T14:14:02.300Z,100560.47
2022-08-20T14:16:35.615Z,100559.06
2022-08-20T14:19:05.046Z,100567.00
2022-08-20T14:21:34.040Z,100556.00
2022-08-20T14:24:03.108Z,100556.78
2022-08-20T14:26:31.994Z,100560.22
2022-08-20T14:29:02.266Z,100560.75
2022-08-20T14:31:31.327Z,100557.00
2022-08-20T14:34:00.220Z,100565.38
2022-08-20T14:36:29.279Z,100564.44
2022-08-20T14:38:58.207Z,100559.06
2022-08-20T14:41:26.821Z,100552.78
2022-08-20T14:43:57.430Z,100567.94
2022-08-20T14:46:27.667Z,100565.59
2022-08-20T14:48:57.353Z,100565.19
2022-08-20T14:51:26.018Z,100567.56
2022-08-20T14:53:54.654Z,100543.72
2022-08-20T14:56:23.523Z,100562.44
2022-08-20T14:58:52.400Z,100573.25
2022-08-20T15:01:21.569Z,100570.22
2022-08-20T15:03:52.029Z,100578.19
2022-08-20T15:06:22.495Z,100570.72
2022-08-20T15:08:51.274Z,100576.53
2022-08-20T15:11:21.404Z,100583.63
2022-08-20T15:13:50.061Z,100581.03
2022-08-20T15:16:18.906Z,100583.13
2022-08-20T15:18:47.805Z,100587.69
2022-08-20T15:21:21.472Z,100579.63
2022-08-20T15:23:50.854Z,100590.28
2022-08-20T15:26:19.752Z,100585.78
2022-08-20T15:28:48.708Z,100588.56
2022-08-20T15:31:17.596Z,100592.03
2022-08-20T15:33:46.552Z,100588.63
2022-08-20T15:36:15.281Z,100592.09
2022-08-20T15:38:45.551Z,100594.00
2022-08-20T15:41:14.537Z,100595.88
2022-08-20T15:43:43.351Z,100594.34
2022-08-20T15:46:12.271Z,100598.22
2022-08-20T15:48:47.091Z,100596.50
2022-08-20T15:51:34.164Z,100591.44
2022-08-20T15:54:09.372Z,100589.13
2022-08-20T15:57:03.957Z,100590.13
2022-08-20T16:00:12.834Z,100555.41
2022-08-20T16:03:13.451Z,100568.66
2022-08-20T16:05:51.771Z,100582.97
2022-08-20T16:08:48.663Z,100541.44
2022-08-20T16:11:33.612Z,100569.91
2022-08-20T16:14:16.534Z,100582.88
2022-08-20T16:16:49.855Z,100580.13
2022-08-20T16:19:30.392Z,100541.84
2022-08-20T16:22:00.469Z,100578.13
2022-08-20T16:24:38.382Z,100569.31
2022-08-20T16:27:23.435Z,100514.34
2022-08-20T16:30:01.357Z,100556.00
2022-08-20T16:32:40.990Z,100556.59
2022-08-20T16:35:31.020Z,100591.25
2022-08-20T16:38:21.122Z,100560.59
2022-08-20T16:40:57.550Z,100589.34
2022-08-20T16:43:35.192Z,100555.22
2022-08-20T16:46:10.064Z,100590.03
2022-08-20T16:48:46.172Z,100437.84
2022-08-20T16:51:20.243Z,100547.97
2022-08-20T16:53:49.172Z,100596.34
2022-08-20T16:56:34.466Z,100556.78
2022-08-20T16:59:12.552Z,100605.16
2022-08-20T17:02:04.514Z,100606.97
2022-08-20T17:04:44.820Z,100616.91
2022-08-20T17:07:33.686Z,100619.59
2022-08-20T17:10:21.439Z,100624.28
2022-08-20T17:12:58.312Z,100613.19
2022-08-20T17:15:32.794Z,100629.13
2022-08-20T17:18:22.050Z,100558.19
2022-08-20T17:20:51.595Z,100525.81
2022-08-20T17:23:22.901Z,100628.69
2022-08-20T17:26:05.666Z,100610.63
2022-08-20T17:28:35.565Z,100556.72
2022-08-20T17:31:05.993Z,100626.16
2022-08-20T17:33:40.281Z,100620.06
2022-08-20T17:36:12.439Z,100536.13
2022-08-20T17:38:49.970Z,100618.59
2022-08-20T17:41:22.865Z,100623.16
2022-08-20T17:43:59.490Z,100615.31
2022-08-20T17:46:44.090Z,100627.06
2022-08-20T17:49:19.331Z,100625.31
2022-08-20T17:51:53.050Z,100619.50
2022-08-20T17:54:27.217Z,100627.28
2022-08-20T17:57:03.065Z,100636.44
2022-08-20T18:00:01.487Z,100635.72
2022-08-20T18:02:31.073Z,100638.59
2022-08-20T18:05:00.160Z,100638.78
2022-08-20T18:07:37.454Z,100593.91
2022-08-20T18:10:14.921Z,100640.78
2022-08-20T18:12:59.256Z,100648.03
2022-08-20T18:15:33.002Z,100618.94
2022-08-20T18:18:31.258Z,100650.84
2022-08-20T18:21:27.227Z,100652.97
2022-08-20T18:24:05.202Z,100663.44
2022-08-20T18:26:43.231Z,100485.09
2022-08-20T18:29:18.393Z,100575.44
2022-08-20T18:31:51.575Z,100652.03
2022-08-20T18:34:37.265Z,100671.00
2022-08-20T18:37:21.313Z,100654.72
2022-08-20T18:39:52.351Z,100670.25
2022-08-20T18:42:30.958Z,100653.03
2022-08-20T18:45:00.280Z,100678.50
2022-08-20T18:47:43.028Z,100630.81
2022-08-20T18:50:28.663Z,100686.53
2022-08-20T18:53:16.862Z,100657.91
2022-08-20T18:55:48.903Z,100657.06
2022-08-20T18:58:32.965Z,100685.72
2022-08-20T19:01:09.061Z,100592.19
2022-08-20T19:03:46.911Z,100681.41
2022-08-20T19:06:54.328Z,100647.59
2022-08-20T19:10:27.619Z,100645.22
2022-08-20T19:13:46.270Z,100688.72
2022-08-20T19:16:22.788Z,100688.72
2022-08-20T19:18:55.794Z,100690.59
2022-08-20T19:21:33.023Z,100684.25
2022-08-20T19:24:08.194Z,100570.53
2022-08-20T19:26:44.711Z,100640.03
2022-08-20T19:29:21.071Z,100610.41
2022-08-20T19:31:50.290Z,100692.13
2022-08-20T19:34:26.835Z,100684.25
2022-08-20T19:37:09.092Z,100618.50
2022-08-20T19:39:52.682Z,100656.56
2022-08-20T19:42:26.521Z,100669.50
2022-08-20T19:44:59.657Z,100664.28
2022-08-20T19:47:34.017Z,100687.88
2022-08-20T19:50:20.652Z,100682.50
2022-08-20T19:53:08.808Z,100639.22
2022-08-20T19:55:41.718Z,100666.16
2022-08-20T19:58:25.999Z,100685.25
2022-08-20T20:00:56.765Z,100690.59
2022-08-20T20:03:29.308Z,100685.25
2022-08-20T20:06:01.886Z,100687.00
2022-08-20T20:08:48.306Z,100685.13
2022-08-20T20:11:22.772Z,100686.84
2022-08-20T20:13:52.109Z,100687.66
2022-08-20T20:16:23.574Z,100512.34
2022-08-20T20:19:16.003Z,100683.78
2022-08-20T20:21:49.108Z,100650.69
2022-08-20T20:24:27.648Z,100632.63
2022-08-20T20:27:00.620Z,100688.41
2022-08-20T20:29:59.050Z,100680.16
2022-08-20T20:32:29.331Z,100640.44
2022-08-20T20:35:05.269Z,100633.41
2022-08-20T20:37:50.933Z,100675.97
2022-08-20T20:40:28.711Z,100686.53
2022-08-20T20:43:12.982Z,100672.66
2022-08-20T20:45:53.427Z,100671.88
2022-08-20T20:48:27.713Z,100441.09
2022-08-20T20:51:13.520Z,100549.25
2022-08-20T20:53:54.842Z,100615.13
2022-08-20T20:56:36.110Z,100670.47
2022-08-20T20:59:07.310Z,100675.03
2022-08-20T21:01:47.969Z,100668.03
2022-08-20T21:04:19.429Z,100672.53
2022-08-20T21:06:48.873Z,100671.56
2022-08-20T21:09:17.877Z,100670.78
2022-08-20T21:11:49.931Z,100665.34
2022-08-20T21:14:37.366Z,100669.75
2022-08-20T21:17:08.443Z,100661.63
2022-08-20T21:19:46.359Z,100659.13
2022-08-20T21:22:15.548Z,100659.19
2022-08-20T21:24:45.666Z,100659.19
2022-08-20T21:27:26.097Z,100663.69
2022-08-20T21:29:55.641Z,100662.75
2022-08-20T21:32:24.836Z,100655.50
2022-08-20T21:34:53.955Z,100654.72
2022-08-20T21:37:23.077Z,100661.94
2022-08-20T21:39:52.476Z,100657.47
2022-08-20T21:42:29.098Z,100653.03
2022-08-20T21:44:59.125Z,100651.16
2022-08-20T21:47:29.178Z,100651.16
2022-08-20T21:49:57.981Z,100642.25
2022-08-20T21:52:26.589Z,100648.47
2022-08-20T21:54:56.454Z,100644.00
2022-08-20T21:57:31.108Z,100557.47
2022-08-20T22:00:02.300Z,100639.59
2022-08-20T22:02:33.865Z,100639.78
2022-08-20T22:05:02.539Z,100640.53
2022-08-20T22:07:31.394Z,100645.09
2022-08-20T22:10:07.366Z,100640.59
2022-08-20T22:12:37.943Z,100639.78
2022-08-20T22:15:08.344Z,100648.69
2022-08-20T22:17:36.997Z,100638.16
2022-08-20T22:20:08.787Z,100633.75
2022-08-20T22:22:39.423Z,100635.47
2022-08-20T22:25:10.270Z,100631.16
2022-08-20T22:27:43.131Z,100640.03
2022-08-20T22:30:13.385Z,100594.97
2022-08-20T22:33:01.537Z,100630.41
2022-08-20T22:35:31.266Z,100633.09
2022-08-20T22:38:00.225Z,100632.31
2022-08-20T22:40:29.131Z,100627.84
2022-08-20T22:42:59.498Z,100635.78
2022-08-20T22:45:28.760Z,100636.72
2022-08-20T22:47:57.505Z,100634.03
2022-08-20T22:50:26.509Z,100633.19
2022-08-20T22:52:55.736Z,100639.38
2022-08-20T22:55:24.640Z,100635.78
2022-08-20T22:57:53.545Z,100632.22
2022-08-20T23:00:24.244Z,100626.25
2022-08-20T23:02:58.764Z,100606.31
2022-08-20T23:05:31.842Z,100644.59
2022-08-20T23:08:02.311Z,100575.19
2022-08-20T23:10:33.217Z,100649.81
2022-08-20T23:13:01.923Z,100657.06
2022-08-20T23:15:37.783Z,100651.69
2022-08-20T23:18:16.668Z,100643.66
2022-08-20T23:20:56.233Z,100567.31
2022-08-20T23:23:26.238Z,100639.91
2022-08-20T23:25:56.169Z,100645.25
2022-08-20T23:28:26.820Z,100646.13
2022-08-20T23:30:57.078Z,100642.47
2022-08-20T23:33:26.124Z,100642.41
2022-08-20T23:35:54.747Z,100612.88
2022-08-20T23:38:23.469Z,100645.88
2022-08-20T23:40:52.294Z,100641.38
2022-08-20T23:43:21.140Z,100639.59
2022-08-20T23:45:49.698Z,100645.88
2022-08-20T23:48:19.975Z,100637.78
2022-08-20T23:50:48.913Z,100644.00
2022-08-20T23:53:17.465Z,100642.41
2022-08-20T23:55:46.347Z,100645.72
2022-08-20T23:58:14.974Z,100640.03
